Аэропорт: Петропавловск. Петропавловск

ICAO: UACP

METAR:
2020-06-02 08:30:00
UACP 020830Z 32005MPS 9999 BKN030CB 16/08 Q1013 R23/0/0060 NOSIG RMK QFE747/0997
METAR:
2020-06-02 05:02:00
TAF UACP 020502Z 0206/0215 32006MPS 9999 SCT012 BKN020CB TEMPO 0206/0212 35008MPS -SHRA